map of SBJR home
Great Circle Mapper logo
SBJR - Airport
Location
City:  Rio de Janeiro, Rio de Janeiro, Brazil
Name:Jacarepaguá-Roberto Marinho Airport
ICAO:SBJR

Details
Type:Airport (Aerodrome, Airfield)
Use:Public/Civil
Latitude:22°59'12"S (-22.986666)
Longitude:43°22'19"W (-43.371943)
Elevation:9 ft (3 m)
Runways:1
Longest:2953 × 98 ft (900 × 30 m), paved

Time
Time Zone:UTC-3 (DST-2)
Local Time:

Weather
METAR:SBJR 210100Z 24001KT 9999 SCT025 BKN100 25/24 Q1015

Related Locations
Nearby:
Farthest:IWO: 12123 mi / 19510 km
Iwo Jima [Iwo Jima AB], Iwo Jima Island, JP

Find:

   beyond  
but within

Other Information
Maps:
NOTAMs:
Links:
Sources:

  
flag of Brazil
flag of Rio de Janeiro
flag of Rio de Janeiro
  

Sectional Chart

Flight Planning
at skyvector.com

Satellite Image

Google Maps Satellite View

 

Copyright © 2004-2014 Karl L. Swartz. All rights reserved.
The Great Circle Mapper name and logo are trademarks of the Great Circle Mapper.
All other trademarks mentioned herein belong to their respective owners.
Please see credits for attibutions and further copyright information.

  Follow gcmap on Facebook Follow gcmap on Twitter

hCard Microformat

Geo Microformat